createdAt,value
2022-10-29T00:01:06.426Z,77.56
2022-10-29T00:03:40.718Z,78.19
2022-10-29T00:06:10.832Z,78.47
2022-10-29T00:08:39.586Z,77.75
2022-10-29T00:11:15.365Z,77.13
2022-10-29T00:13:44.048Z,76.40
2022-10-29T00:16:13.552Z,76.24
2022-10-29T00:18:41.519Z,76.26
2022-10-29T00:21:12.036Z,74.70
2022-10-29T00:23:40.631Z,75.15
2022-10-29T00:26:08.503Z,73.80
2022-10-29T00:28:36.978Z,74.51
2022-10-29T00:31:06.194Z,75.66
2022-10-29T00:33:34.463Z,75.78
2022-10-29T00:36:03.751Z,76.52
2022-10-29T00:38:32.845Z,76.38
2022-10-29T00:41:01.227Z,75.65
2022-10-29T00:43:29.721Z,75.77
2022-10-29T00:46:00.104Z,75.18
2022-10-29T00:48:29.977Z,75.55
2022-10-29T00:50:59.144Z,75.04
2022-10-29T00:53:29.253Z,74.01
2022-10-29T00:55:58.248Z,75.10
2022-10-29T00:58:26.760Z,76.64
2022-10-29T01:00:54.695Z,77.43
2022-10-29T01:03:22.765Z,79.08
2022-10-29T01:05:51.965Z,77.89
2022-10-29T01:08:20.804Z,75.82
2022-10-29T01:11:00.879Z,75.53
2022-10-29T01:13:34.910Z,73.94
2022-10-29T01:16:11.994Z,74.19
2022-10-29T01:18:45.692Z,74.67
2022-10-29T01:21:19.991Z,73.57
2022-10-29T01:23:51.053Z,74.63
2022-10-29T01:26:31.219Z,73.86
2022-10-29T01:28:59.286Z,74.64
2022-10-29T01:31:34.075Z,75.90
2022-10-29T01:34:14.670Z,75.80
2022-10-29T01:36:58.816Z,75.40
2022-10-29T01:39:33.171Z,74.90
2022-10-29T01:42:05.095Z,75.39
2022-10-29T01:44:32.968Z,75.09
2022-10-29T01:47:02.232Z,75.93
2022-10-29T01:49:36.189Z,74.55
2022-10-29T01:52:05.698Z,74.61
2022-10-29T01:54:33.753Z,74.97
2022-10-29T01:57:01.547Z,75.39
2022-10-29T01:59:51.295Z,77.05
2022-10-29T02:02:21.242Z,77.73
2022-10-29T02:05:06.779Z,75.85
2022-10-29T02:07:37.985Z,76.13
2022-10-29T02:10:32.482Z,74.22
2022-10-29T02:13:01.300Z,72.43
2022-10-29T02:15:29.168Z,72.67
2022-10-29T02:18:01.306Z,72.67
2022-10-29T02:20:29.691Z,73.59
2022-10-29T02:22:57.677Z,73.99
2022-10-29T02:25:25.629Z,72.84
2022-10-29T02:27:54.070Z,73.61
2022-10-29T02:30:22.385Z,74.14
2022-10-29T02:32:50.473Z,73.91
2022-10-29T02:35:18.320Z,73.82
2022-10-29T02:37:46.181Z,74.32
2022-10-29T02:40:14.373Z,73.55
2022-10-29T02:42:42.193Z,71.68
2022-10-29T02:45:10.348Z,71.14
2022-10-29T02:47:38.411Z,71.07
2022-10-29T02:50:06.760Z,72.59
2022-10-29T02:52:34.625Z,72.08
2022-10-29T02:55:02.422Z,72.78
2022-10-29T02:57:30.457Z,72.77
2022-10-29T02:59:58.634Z,72.95
2022-10-29T03:02:27.069Z,72.75
2022-10-29T03:04:55.253Z,72.18
2022-10-29T03:07:23.357Z,72.50
2022-10-29T03:09:51.225Z,72.70
2022-10-29T03:12:19.047Z,72.73
2022-10-29T03:14:47.259Z,74.22
2022-10-29T03:17:15.133Z,74.67
2022-10-29T03:19:43.158Z,75.33
2022-10-29T03:22:10.973Z,74.57
2022-10-29T03:24:38.827Z,75.32
2022-10-29T03:27:07.214Z,74.91
2022-10-29T03:29:35.152Z,74.81
2022-10-29T03:32:03.139Z,75.01
2022-10-29T03:34:31.313Z,74.80
2022-10-29T03:36:59.382Z,74.97
2022-10-29T03:39:27.184Z,75.22
2022-10-29T03:41:55.213Z,74.39
2022-10-29T03:44:23.016Z,74.38
2022-10-29T03:46:51.111Z,75.86
2022-10-29T03:49:19.145Z,75.94
2022-10-29T03:51:47.038Z,74.51
2022-10-29T03:54:15.165Z,73.67
2022-10-29T03:56:43.024Z,72.63
2022-10-29T04:01:44.036Z,73.20
2022-10-29T04:04:12.251Z,74.43
2022-10-29T04:06:40.173Z,74.50
2022-10-29T04:09:08.087Z,74.40
2022-10-29T04:11:35.954Z,74.33
2022-10-29T04:14:03.919Z,74.92
2022-10-29T04:16:31.767Z,72.75
2022-10-29T04:18:59.655Z,71.60
2022-10-29T04:29:52.309Z,70.01
2022-10-29T04:32:20.113Z,71.12
2022-10-29T04:34:47.993Z,71.65
2022-10-29T04:37:15.825Z,72.07
2022-10-29T04:39:43.808Z,72.17
2022-10-29T04:42:11.777Z,73.14
2022-10-29T04:44:39.640Z,72.84
2022-10-29T04:47:07.397Z,72.47
2022-10-29T04:49:35.228Z,72.16
2022-10-29T04:52:03.337Z,71.90
2022-10-29T04:54:31.151Z,72.45
2022-10-29T04:56:59.587Z,71.99
2022-10-29T04:59:27.705Z,72.60
2022-10-29T05:01:55.731Z,72.94
2022-10-29T05:04:23.793Z,73.09
2022-10-29T05:06:51.633Z,72.70
2022-10-29T05:09:20.048Z,72.89
2022-10-29T05:11:48.174Z,72.05
2022-10-29T05:14:15.990Z,70.46
2022-10-29T05:16:44.259Z,70.80
2022-10-29T05:19:12.233Z,71.18
2022-10-29T05:21:40.314Z,72.70
2022-10-29T05:24:08.458Z,73.70
2022-10-29T05:26:36.694Z,73.43
2022-10-29T05:29:04.681Z,71.64
2022-10-29T05:31:32.570Z,70.14
2022-10-29T05:34:00.396Z,70.06
2022-10-29T05:36:28.314Z,68.75
2022-10-29T05:38:56.164Z,67.94
2022-10-29T05:41:24.134Z,68.95
2022-10-29T05:43:52.005Z,68.24
2022-10-29T05:46:19.963Z,69.46
2022-10-29T05:48:47.846Z,71.38
2022-10-29T05:51:15.878Z,70.97
2022-10-29T05:53:44.073Z,72.13
2022-10-29T05:56:12.111Z,70.68
2022-10-29T05:58:40.184Z,68.25
2022-10-29T06:01:12.070Z,68.94
2022-10-29T06:03:40.398Z,67.49
2022-10-29T06:06:08.573Z,65.77
2022-10-29T06:08:36.396Z,65.62
2022-10-29T06:11:04.990Z,64.55
2022-10-29T06:13:33.351Z,62.84
2022-10-29T06:16:01.829Z,63.10
2022-10-29T06:18:29.757Z,63.62
2022-10-29T06:20:58.536Z,63.22
2022-10-29T06:23:27.270Z,63.40
2022-10-29T06:25:55.336Z,61.38
2022-10-29T06:28:23.408Z,59.99
2022-10-29T06:30:52.295Z,56.51
2022-10-29T06:33:20.785Z,55.23
2022-10-29T06:35:48.957Z,51.92
2022-10-29T06:38:17.334Z,50.31
2022-10-29T06:40:52.075Z,47.64
2022-10-29T06:43:20.028Z,46.79
2022-10-29T06:45:48.712Z,46.76
2022-10-29T06:48:19.142Z,47.74
2022-10-29T06:50:50.610Z,47.61
2022-10-29T06:53:19.297Z,48.50
2022-10-29T06:55:47.430Z,49.52
2022-10-29T06:58:17.050Z,50.43
2022-10-29T07:00:45.340Z,51.43
2022-10-29T07:03:14.418Z,51.27
2022-10-29T07:05:42.899Z,51.23
2022-10-29T07:08:11.280Z,51.42
2022-10-29T07:10:40.000Z,51.49
2022-10-29T07:13:08.440Z,51.70
2022-10-29T07:15:36.489Z,51.46
2022-10-29T07:18:05.831Z,50.86
2022-10-29T07:20:40.963Z,50.57
2022-10-29T07:23:09.671Z,51.57
2022-10-29T07:25:38.732Z,51.32
2022-10-29T07:28:17.647Z,51.72
2022-10-29T07:30:45.546Z,51.49
2022-10-29T07:33:13.858Z,51.91
2022-10-29T07:35:42.203Z,52.00
2022-10-29T07:38:11.644Z,51.69
2022-10-29T07:40:40.768Z,52.48
2022-10-29T07:43:08.967Z,52.25
2022-10-29T07:45:37.539Z,52.24
2022-10-29T07:48:07.906Z,52.38
2022-10-29T07:50:36.842Z,52.84
2022-10-29T07:53:05.801Z,53.52
2022-10-29T07:55:34.033Z,54.31
2022-10-29T07:58:03.411Z,54.70
2022-10-29T08:00:32.503Z,54.51
2022-10-29T08:03:00.649Z,53.89
2022-10-29T08:05:29.977Z,53.64
2022-10-29T08:07:58.436Z,53.48
2022-10-29T08:10:27.348Z,53.41
2022-10-29T08:12:56.737Z,53.67
2022-10-29T08:15:25.885Z,53.47
2022-10-29T08:17:54.619Z,53.71
2022-10-29T08:20:23.458Z,54.14
2022-10-29T08:22:51.470Z,54.57
2022-10-29T08:25:19.940Z,54.93
2022-10-29T08:27:58.182Z,55.83
2022-10-29T08:30:26.217Z,55.80
2022-10-29T08:32:54.832Z,55.60
2022-10-29T08:35:23.727Z,55.72
2022-10-29T08:37:52.059Z,55.71
2022-10-29T08:40:22.638Z,55.16
2022-10-29T08:42:57.183Z,55.27
2022-10-29T08:45:36.385Z,55.56
2022-10-29T08:48:07.360Z,55.83
2022-10-29T08:50:41.368Z,55.76
2022-10-29T08:53:24.588Z,55.96
2022-10-29T08:55:54.677Z,55.61
2022-10-29T08:58:36.283Z,55.44
2022-10-29T09:01:10.100Z,55.42
2022-10-29T09:03:38.869Z,55.52
2022-10-29T09:06:11.951Z,56.04
2022-10-29T09:08:52.511Z,56.58
2022-10-29T09:11:20.489Z,57.03
2022-10-29T09:14:07.958Z,57.47
2022-10-29T09:16:56.354Z,57.76
2022-10-29T09:19:27.092Z,57.48
2022-10-29T09:22:09.024Z,57.63
2022-10-29T09:24:40.606Z,57.33
2022-10-29T09:27:16.203Z,56.63
2022-10-29T09:30:10.483Z,56.34
2022-10-29T09:32:44.438Z,56.33
2022-10-29T09:35:16.964Z,56.20
2022-10-29T09:37:50.046Z,56.77
2022-10-29T09:40:20.979Z,57.77
2022-10-29T09:42:49.042Z,58.81
2022-10-29T09:45:18.663Z,58.45
2022-10-29T09:47:46.533Z,58.29
2022-10-29T09:50:20.808Z,58.68
2022-10-29T09:52:49.835Z,58.82
2022-10-29T09:55:20.364Z,58.95
2022-10-29T09:57:49.808Z,58.84
2022-10-29T10:00:19.803Z,59.06
2022-10-29T10:03:03.327Z,59.68
2022-10-29T10:05:32.964Z,59.18
2022-10-29T10:08:09.815Z,58.67
2022-10-29T10:10:57.907Z,59.10
2022-10-29T10:13:38.568Z,59.29
2022-10-29T10:16:06.971Z,59.96
2022-10-29T10:21:24.120Z,60.81
2022-10-29T10:23:53.020Z,61.54
2022-10-29T10:26:26.927Z,62.59
2022-10-29T10:29:03.843Z,62.54
2022-10-29T10:31:31.719Z,61.94
2022-10-29T10:33:59.709Z,62.70
2022-10-29T10:36:29.755Z,63.15
2022-10-29T10:38:59.007Z,63.92
2022-10-29T10:41:32.869Z,64.04
2022-10-29T10:44:05.065Z,63.21
2022-10-29T10:46:39.853Z,63.08
2022-10-29T10:49:18.369Z,62.22
2022-10-29T10:51:48.935Z,62.15
2022-10-29T10:54:22.930Z,62.08
2022-10-29T10:57:19.561Z,61.17
2022-10-29T10:59:47.537Z,60.30
2022-10-29T11:02:23.659Z,59.35
2022-10-29T11:04:59.090Z,59.12
2022-10-29T11:07:34.360Z,59.03
2022-10-29T11:10:05.093Z,59.07
2022-10-29T11:12:37.073Z,58.44
2022-10-29T11:15:11.307Z,58.09
2022-10-29T11:17:52.931Z,57.91
2022-10-29T11:20:31.893Z,57.97
2022-10-29T11:23:11.739Z,57.70
2022-10-29T11:25:43.321Z,57.48
2022-10-29T11:28:26.311Z,57.27
2022-10-29T11:31:00.398Z,57.33
2022-10-29T11:33:41.682Z,57.32
2022-10-29T11:36:15.385Z,57.17
2022-10-29T11:38:48.298Z,57.29
2022-10-29T11:41:30.013Z,57.42
2022-10-29T11:43:57.982Z,57.98
2022-10-29T11:46:44.863Z,58.09
2022-10-29T11:49:15.872Z,58.40
2022-10-29T11:51:52.201Z,58.51
2022-10-29T11:54:33.443Z,58.69
2022-10-29T11:57:09.410Z,58.63
2022-10-29T11:59:43.705Z,58.66
2022-10-29T12:02:20.294Z,59.22
2022-10-29T12:05:06.974Z,59.27
2022-10-29T12:07:54.244Z,59.27
2022-10-29T12:10:41.512Z,59.12
2022-10-29T12:13:17.635Z,59.07
2022-10-29T12:15:51.306Z,58.70
2022-10-29T12:18:28.797Z,58.47
2022-10-29T12:21:03.181Z,58.70
2022-10-29T12:23:46.545Z,58.74
2022-10-29T12:26:32.742Z,59.13
2022-10-29T12:29:06.134Z,59.62
2022-10-29T12:31:49.362Z,59.90
2022-10-29T12:34:17.170Z,59.80
2022-10-29T12:36:59.838Z,59.99
2022-10-29T12:39:40.711Z,60.02
2022-10-29T12:42:18.033Z,59.74
2022-10-29T12:44:45.810Z,59.65
2022-10-29T12:47:34.312Z,59.87
2022-10-29T12:50:21.331Z,59.69
2022-10-29T12:52:55.924Z,59.47
2022-10-29T12:55:24.460Z,60.01
2022-10-29T12:57:52.518Z,60.16
2022-10-29T13:00:23.340Z,60.16
2022-10-29T13:02:52.235Z,60.31
2022-10-29T13:05:36.179Z,60.35
2022-10-29T13:08:04.046Z,60.48
2022-10-29T13:10:31.907Z,60.52
2022-10-29T13:12:59.898Z,60.28
2022-10-29T13:15:34.572Z,60.19
2022-10-29T13:18:07.038Z,60.50
2022-10-29T13:20:35.023Z,60.40
2022-10-29T13:23:05.384Z,60.31
2022-10-29T13:25:42.461Z,60.60
2022-10-29T13:28:10.414Z,60.51
2022-10-29T13:30:39.929Z,60.97
2022-10-29T13:33:26.425Z,60.63
2022-10-29T13:35:54.594Z,60.66
2022-10-29T13:38:58.232Z,60.58
2022-10-29T13:41:42.920Z,60.67
2022-10-29T13:44:11.434Z,60.85
2022-10-29T13:46:49.070Z,61.01
2022-10-29T13:49:34.938Z,60.97
2022-10-29T13:52:11.658Z,60.91
2022-10-29T13:54:41.399Z,61.23
2022-10-29T13:57:12.118Z,61.23
2022-10-29T13:59:43.086Z,61.22
2022-10-29T14:02:29.893Z,61.51
2022-10-29T14:05:24.457Z,61.92
2022-10-29T14:08:11.611Z,62.28
2022-10-29T14:10:39.575Z,63.05
2022-10-29T14:13:23.663Z,63.50
2022-10-29T14:16:22.315Z,63.90
2022-10-29T14:18:51.283Z,64.25
2022-10-29T14:21:22.902Z,64.38
2022-10-29T14:24:08.082Z,64.63
2022-10-29T14:26:40.605Z,64.14
2022-10-29T14:29:17.998Z,64.04
2022-10-29T14:31:46.507Z,64.20
2022-10-29T14:34:26.328Z,63.87
2022-10-29T14:36:56.515Z,64.15
2022-10-29T14:39:32.640Z,64.33
2022-10-29T14:42:16.805Z,64.67
2022-10-29T14:44:48.721Z,65.91
2022-10-29T14:47:19.490Z,67.49
2022-10-29T14:49:48.366Z,68.23
2022-10-29T14:52:31.981Z,68.63
2022-10-29T14:55:06.862Z,68.82
2022-10-29T14:57:40.101Z,68.45
2022-10-29T15:00:08.387Z,68.73
2022-10-29T15:02:39.267Z,69.44
2022-10-29T15:05:25.883Z,70.66
2022-10-29T15:08:24.479Z,72.37
2022-10-29T15:10:53.945Z,74.18
2022-10-29T15:13:28.015Z,75.54
2022-10-29T15:15:58.609Z,76.20
2022-10-29T15:18:27.126Z,76.59
2022-10-29T15:20:55.394Z,77.48
2022-10-29T15:23:28.080Z,77.90
2022-10-29T15:26:04.108Z,77.96
2022-10-29T15:28:37.817Z,77.60
2022-10-29T15:31:06.586Z,78.58
2022-10-29T15:33:35.843Z,78.77
2022-10-29T15:36:05.126Z,78.08
2022-10-29T15:38:34.532Z,77.26
2022-10-29T15:41:08.236Z,75.42
2022-10-29T15:43:48.489Z,75.74
2022-10-29T15:46:23.527Z,74.91
2022-10-29T15:48:52.482Z,73.73
2022-10-29T15:51:26.322Z,73.54
2022-10-29T15:53:58.858Z,74.60
2022-10-29T15:56:26.972Z,75.88
2022-10-29T15:58:56.911Z,76.15
2022-10-29T16:01:24.984Z,75.71
2022-10-29T16:03:53.216Z,76.65
2022-10-29T16:06:21.558Z,76.58
2022-10-29T16:08:51.393Z,76.86
2022-10-29T16:11:22.916Z,76.66
2022-10-29T16:13:54.668Z,77.37
2022-10-29T16:16:25.234Z,77.61
2022-10-29T16:18:53.553Z,77.43
2022-10-29T16:21:22.713Z,77.14
2022-10-29T16:23:51.620Z,77.19
2022-10-29T16:26:21.122Z,76.82
2022-10-29T16:28:49.304Z,76.03
2022-10-29T16:31:22.079Z,75.44
2022-10-29T16:33:51.790Z,75.05
2022-10-29T16:36:19.830Z,75.14
2022-10-29T16:38:47.970Z,74.90
2022-10-29T16:41:16.750Z,75.02
2022-10-29T16:43:45.026Z,75.06
2022-10-29T16:46:13.482Z,75.05
2022-10-29T16:48:41.385Z,75.14
2022-10-29T16:51:09.623Z,75.24
2022-10-29T16:53:37.431Z,75.18
2022-10-29T16:56:05.730Z,74.98
2022-10-29T16:58:34.298Z,74.49
2022-10-29T17:01:03.510Z,74.39
2022-10-29T17:03:33.397Z,74.51
2022-10-29T17:06:06.024Z,74.42
2022-10-29T17:08:34.784Z,74.67
2022-10-29T17:11:04.319Z,75.78
2022-10-29T17:13:33.768Z,76.39
2022-10-29T17:16:09.402Z,76.36
2022-10-29T17:18:37.434Z,77.18
2022-10-29T17:21:05.615Z,76.42
2022-10-29T17:23:33.786Z,75.65
2022-10-29T17:26:01.974Z,75.59
2022-10-29T17:28:30.336Z,75.29
2022-10-29T17:30:58.482Z,77.58
2022-10-29T17:33:26.474Z,79.46
2022-10-29T17:36:01.786Z,79.63
2022-10-29T17:38:30.199Z,80.00
2022-10-29T17:40:58.015Z,79.26
2022-10-29T17:43:25.926Z,78.56
2022-10-29T17:45:53.897Z,78.10
2022-10-29T17:48:24.121Z,77.80
2022-10-29T17:50:53.723Z,78.81
2022-10-29T17:53:22.695Z,79.11
2022-10-29T17:55:51.196Z,78.42
2022-10-29T17:58:19.695Z,77.88
2022-10-29T18:00:48.644Z,77.11
2022-10-29T18:03:16.737Z,77.45
2022-10-29T18:05:44.843Z,76.86
2022-10-29T18:08:12.741Z,77.44
2022-10-29T18:10:41.237Z,78.70
2022-10-29T18:13:09.224Z,78.43
2022-10-29T18:15:37.806Z,77.91
2022-10-29T18:18:05.835Z,78.30
2022-10-29T18:20:34.051Z,78.13
2022-10-29T18:23:02.496Z,77.93
2022-10-29T18:25:30.786Z,78.18
2022-10-29T18:27:58.854Z,77.55
2022-10-29T18:30:26.950Z,78.03
2022-10-29T18:32:55.464Z,78.56
2022-10-29T18:35:23.789Z,78.50
2022-10-29T18:37:51.746Z,78.06
2022-10-29T18:40:19.629Z,78.30
2022-10-29T18:42:47.710Z,77.37
2022-10-29T18:45:15.679Z,77.01
2022-10-29T18:47:43.751Z,77.21
2022-10-29T18:50:11.589Z,76.64
2022-10-29T18:52:39.994Z,77.77
2022-10-29T18:55:08.441Z,78.65
2022-10-29T18:57:36.441Z,78.08
2022-10-29T19:00:04.856Z,76.85
2022-10-29T19:02:32.753Z,76.57
2022-10-29T19:05:00.660Z,79.06
2022-10-29T19:07:28.621Z,79.52
2022-10-29T19:09:56.570Z,79.18
2022-10-29T19:12:24.369Z,78.34
2022-10-29T19:14:53.655Z,77.77
2022-10-29T19:17:21.518Z,78.73
2022-10-29T19:19:49.699Z,77.98
2022-10-29T19:22:17.797Z,78.13
2022-10-29T19:24:45.663Z,79.27
2022-10-29T19:27:13.461Z,79.11
2022-10-29T19:29:41.564Z,79.20
2022-10-29T19:32:09.725Z,78.44
2022-10-29T19:37:06.699Z,79.13
2022-10-29T19:39:34.461Z,79.88
2022-10-29T19:42:02.637Z,80.69
2022-10-29T19:44:30.707Z,80.42
2022-10-29T19:46:58.778Z,79.52
2022-10-29T19:49:27.465Z,78.46
2022-10-29T19:51:57.376Z,77.13
2022-10-29T19:54:25.640Z,76.85
2022-10-29T19:56:53.924Z,76.64
2022-10-29T19:59:21.705Z,76.90
2022-10-29T20:01:49.879Z,77.81
2022-10-29T20:04:18.162Z,78.58
2022-10-29T20:06:46.177Z,77.98
2022-10-29T20:09:14.213Z,79.09
2022-10-29T20:11:42.097Z,79.65
2022-10-29T20:14:10.084Z,79.99
2022-10-29T20:16:38.294Z,79.96
2022-10-29T20:19:06.637Z,78.33
2022-10-29T20:21:34.737Z,77.98
2022-10-29T20:24:02.695Z,77.88
2022-10-29T20:26:31.393Z,77.30
2022-10-29T20:28:59.971Z,76.78
2022-10-29T20:31:31.084Z,76.62
2022-10-29T20:34:01.199Z,76.80
2022-10-29T20:36:31.834Z,77.74
2022-10-29T20:39:00.253Z,77.49
2022-10-29T20:41:29.540Z,77.14
2022-10-29T20:43:58.862Z,76.99
2022-10-29T20:46:27.325Z,76.56
2022-10-29T20:48:55.375Z,75.99
2022-10-29T20:51:23.662Z,75.35
2022-10-29T20:53:52.043Z,74.26
2022-10-29T20:56:20.523Z,75.27
2022-10-29T20:58:48.579Z,75.91
2022-10-29T21:01:18.180Z,75.20
2022-10-29T21:03:47.806Z,75.37
2022-10-29T21:06:17.489Z,77.02
2022-10-29T21:08:46.308Z,78.19
2022-10-29T21:11:15.401Z,78.09
2022-10-29T21:13:43.502Z,78.68
2022-10-29T21:16:19.089Z,78.07
2022-10-29T21:18:49.676Z,76.42
2022-10-29T21:21:18.943Z,78.85
2022-10-29T21:23:47.129Z,79.58
2022-10-29T21:26:16.212Z,79.67
2022-10-29T21:28:44.591Z,80.37
2022-10-29T21:31:12.946Z,80.66
2022-10-29T21:33:41.207Z,82.31
2022-10-29T21:36:12.254Z,83.11
2022-10-29T21:38:40.352Z,82.74
2022-10-29T21:41:08.267Z,81.48
2022-10-29T21:43:37.398Z,81.13
2022-10-29T21:46:05.411Z,79.80
2022-10-29T21:48:33.557Z,79.65
2022-10-29T21:51:03.050Z,81.06
2022-10-29T21:53:31.233Z,81.20
2022-10-29T21:56:00.325Z,80.77
2022-10-29T21:58:28.983Z,81.65
2022-10-29T22:01:04.635Z,81.44
2022-10-29T22:03:33.369Z,80.77
2022-10-29T22:06:15.219Z,81.86
2022-10-29T22:08:43.858Z,80.70
2022-10-29T22:11:12.741Z,80.29
2022-10-29T22:13:40.770Z,79.92
2022-10-29T22:16:09.260Z,79.99
2022-10-29T22:18:37.685Z,78.43
2022-10-29T22:21:11.838Z,77.97
2022-10-29T22:23:44.555Z,79.11
2022-10-29T22:26:13.599Z,78.58
2022-10-29T22:28:41.905Z,77.62
2022-10-29T22:31:09.870Z,76.87
2022-10-29T22:33:37.942Z,76.43
2022-10-29T22:36:09.498Z,75.75
2022-10-29T22:38:37.974Z,75.18
2022-10-29T22:41:26.066Z,74.95
2022-10-29T22:43:54.585Z,73.70
2022-10-29T22:46:22.893Z,73.05
2022-10-29T22:48:51.144Z,73.83
2022-10-29T22:51:21.626Z,73.86
2022-10-29T22:53:50.260Z,73.87
2022-10-29T22:56:18.136Z,74.13
2022-10-29T22:58:46.606Z,74.17
2022-10-29T23:01:15.906Z,73.30
2022-10-29T23:03:44.278Z,74.42
2022-10-29T23:06:13.925Z,75.52
2022-10-29T23:08:44.228Z,75.53
2022-10-29T23:11:19.595Z,75.99
2022-10-29T23:13:53.047Z,75.24
2022-10-29T23:16:21.460Z,75.52
2022-10-29T23:18:50.463Z,74.71
2022-10-29T23:21:19.119Z,74.69
2022-10-29T23:23:47.692Z,74.63
2022-10-29T23:26:16.894Z,73.67
2022-10-29T23:28:45.399Z,74.68
2022-10-29T23:31:17.535Z,75.14
2022-10-29T23:33:46.560Z,75.74
2022-10-29T23:36:15.311Z,76.73
2022-10-29T23:38:43.633Z,78.18
2022-10-29T23:41:12.244Z,78.64
2022-10-29T23:43:40.722Z,77.26
2022-10-29T23:46:08.615Z,77.26
2022-10-29T23:48:37.502Z,76.25
2022-10-29T23:51:06.297Z,77.30
2022-10-29T23:53:34.246Z,79.30
2022-10-29T23:56:02.130Z,80.23
2022-10-29T23:58:30.315Z,81.20
